Flagship Orchid — V7YE4 — position and weather

sailwx.info

Track history (hours):
 
Tides and Currents Weather Stations Pressure Air Temp Water Temp Dewpoint Dewpoint Depression Visibility Wind Speed Wind Dir Waves Ship Positions

Flagship Orchid

Last reported at 2018-Feb-18 22:10 UTC. Time now 2018-Feb-19 01:57 UTC.
Position N 06°01' E 001°15'.

Length 228 m; draft 11.7 m.

Type: Ship. MMSI: 538004640.

Date/timePositionNaut miles runAvg speedWind from/ knotsBaromVisibWave heightAir tempDewpointWater temp
2018-Feb-18 22:10N 06°01' E 001°15'0 0.0
2018-Feb-18 21:52N 06°01' E 001°15'0 0.0
2018-Feb-18 21:25N 06°01' E 001°15'0 0.0
2018-Feb-18 17:55N 06°01' E 001°15'0 0.0
2018-Feb-18 17:19N 06°01' E 001°15'8 1.5
2018-Feb-18 12:03N 05°53' E 001°17'1 0.7
2018-Feb-18 11:10N 05°54' E 001°18'0 2.8
2018-Feb-18 10:59N 05°54' E 001°18'2 4.2
2018-Feb-18 10:30N 05°56' E 001°17'6 0.5
2018-Feb-17 21:48N 06°01' E 001°15'0 0.0
2018-Feb-17 21:24N 06°01' E 001°15'0 0.0
2018-Feb-17 20:39N 06°01' E 001°15'0 0.0
2018-Feb-17 19:12N 06°01' E 001°15'0 0.0
2018-Feb-17 18:51N 06°01' E 001°15'0 0.0
2018-Feb-17 18:30N 06°01' E 001°15'0 0.0
2018-Feb-17 17:51N 06°01' E 001°15'0 0.0
2018-Feb-17 17:12N 06°01' E 001°15'0 0.0
2018-Feb-17 16:00N 06°01' E 001°15'0 0.0
2018-Feb-17 15:30N 06°01' E 001°15'0 0.0
2018-Feb-17 14:54N 06°01' E 001°15'0 0.0
2018-Feb-17 14:30N 06°01' E 001°15'0 0.0
2018-Feb-17 05:21N 06°01' E 001°15'0 0.0
2018-Feb-17 04:18N 06°01' E 001°15'0 0.0
2018-Feb-16 21:00N 06°01' E 001°15'0 0.0
2018-Feb-16 20:30N 06°01' E 001°15'0 0.0
2018-Feb-16 20:00N 06°01' E 001°15'0 0.0
2018-Feb-16 19:30N 06°01' E 001°15'0 0.0
2018-Feb-16 19:00N 06°01' E 001°15'0 0.0
2018-Feb-16 18:30N 06°01' E 001°15'0 0.0
2018-Feb-16 18:00N 06°01' E 001°15'0 0.0
2018-Feb-16 17:30N 06°01' E 001°15'0 0.0
2018-Feb-16 16:54N 06°01' E 001°15'0 0.0
2018-Feb-16 16:12N 06°01' E 001°15'0 0.0
2018-Feb-16 16:00N 06°01' E 001°15'0 0.0
2018-Feb-16 03:15N 06°01' E 001°15'0 0.0
2018-Feb-16 02:54N 06°01' E 001°15'0 0.0
2018-Feb-16 02:24N 06°01' E 001°15'0 0.0
2018-Feb-16 02:00N 06°01' E 001°15'0 0.0
2018-Feb-16 01:30N 06°01' E 001°15'0 0.0
2018-Feb-16 01:00N 06°01' E 001°15'0 0.0
2018-Feb-16 00:30N 06°01' E 001°15'0 0.0
2018-Feb-16 00:00N 06°01' E 001°15'0 0.0
2018-Feb-15 23:30N 06°01' E 001°15'0 0.0
2018-Feb-15 22:57N 06°01' E 001°15'0 0.0
2018-Feb-15 22:30N 06°01' E 001°15'0 0.0
2018-Feb-15 21:48N 06°01' E 001°15'0 0.0
2018-Feb-15 21:30N 06°01' E 001°15'0 0.0
2018-Feb-15 20:51N 06°01' E 001°15'0 0.0
2018-Feb-15 19:57N 06°01' E 001°15'0 0.0
2018-Feb-15 19:27N 06°01' E 001°15'0 0.0
2018-Feb-15 19:00N 06°01' E 001°15'0 0.0
2018-Feb-15 18:27N 06°01' E 001°15'0 0.0
2018-Feb-15 17:51N 06°01' E 001°15'0 0.2
2018-Feb-15 17:18N 06°01' E 001°15'0 0.6
2018-Feb-15 16:59N 06°01' E 001°15'0 0.6
2018-Feb-15 16:25N 06°01' E 001°15'4 0.4
2018-Feb-15 07:59N 06°01' E 001°19'0 0.0
2018-Feb-15 07:11N 06°01' E 001°19'0 0.0
2018-Feb-15 06:17N 06°01' E 001°19'0 0.0
2018-Feb-14 20:32N 06°01' E 001°19'0 0.0
2018-Feb-14 20:29N 06°01' E 001°19'0 0.0
2018-Feb-14 19:53N 06°01' E 001°19'0 0.0
2018-Feb-14 19:29N 06°01' E 001°19'0 0.0
2018-Feb-14 18:59N 06°01' E 001°19'0 0.0
2018-Feb-14 18:20N 06°01' E 001°19'0 0.0
2018-Feb-14 17:59N 06°01' E 001°19'0 0.0
2018-Feb-14 16:59N 06°01' E 001°19'0 0.0
2018-Feb-14 16:29N 06°01' E 001°19'0 0.0
2018-Feb-14 15:59N 06°01' E 001°19'0 0.0
2018-Feb-14 15:29N 06°01' E 001°19'0 0.0
2018-Feb-14 14:59N 06°01' E 001°19'0 0.0
2018-Feb-14 14:11N 06°01' E 001°19'0 0.0
2018-Feb-14 13:59N 06°01' E 001°19'0 0.0
2018-Feb-14 02:38N 06°01' E 001°19'0 0.0
2018-Feb-14 02:29N 06°01' E 001°19'0 0.0
2018-Feb-14 01:56N 06°01' E 001°19'0 0.0
2018-Feb-14 01:14N 06°01' E 001°19'0 0.0
2018-Feb-14 00:41N 06°01' E 001°19'0 0.0
2018-Feb-14 00:29N 06°01' E 001°19'0 0.0
2018-Feb-13 23:53N 06°01' E 001°19'0 0.0
2018-Feb-13 23:29N 06°01' E 001°19'0 0.0
2018-Feb-13 22:50N 06°01' E 001°19'0 0.0
2018-Feb-13 22:26N 06°01' E 001°19'0 0.0
2018-Feb-13 21:59N 06°01' E 001°19'0 0.0
2018-Feb-13 21:20N 06°01' E 001°19'0 0.0
2018-Feb-13 20:59N 06°01' E 001°19'0 0.0
2018-Feb-13 20:29N 06°01' E 001°19'0 0.0
2018-Feb-13 19:56N 06°01' E 001°19'0 0.0
2018-Feb-13 19:29N 06°01' E 001°19'0 0.0
2018-Feb-13 18:59N 06°01' E 001°19'0 0.0
2018-Feb-13 18:29N 06°01' E 001°19'0 0.0
2018-Feb-13 17:56N 06°01' E 001°19'0 0.0
2018-Feb-13 17:23N 06°01' E 001°19'0 0.0
2018-Feb-13 16:59N 06°01' E 001°19'0 0.0
2018-Feb-12 22:50N 06°01' E 001°19'0 0.0
2018-Feb-12 22:29N 06°01' E 001°19'0 0.0
2018-Feb-12 21:44N 06°01' E 001°19'0 0.0
2018-Feb-12 21:17N 06°01' E 001°19'0 0.0
2018-Feb-12 20:53N 06°01' E 001°19'0 0.0
2018-Feb-12 19:47N 06°01' E 001°19'0 0.0
2018-Feb-12 19:11N 06°01' E 001°19'0 0.0
2018-Feb-12 18:14N 06°01' E 001°19'0 0.0
2018-Feb-12 17:59N 06°01' E 001°19'0 0.0
2018-Feb-12 17:29N 06°01' E 001°19'0 0.0
2018-Feb-12 16:59N 06°01' E 001°19'0 0.0
2018-Feb-12 16:29N 06°01' E 001°19'0 0.0
2018-Feb-12 15:56N 06°01' E 001°19'0 0.0
2018-Feb-12 15:17N 06°01' E 001°19'0 0.0
2018-Feb-12 14:56N 06°01' E 001°19'0 0.0
2018-Feb-11 22:20N 06°01' E 001°19'0 0.0
2018-Feb-11 21:59N 06°01' E 001°19'0 0.0
2018-Feb-11 21:29N 06°01' E 001°19'0 0.0
2018-Feb-11 20:56N 06°01' E 001°19'0 0.0
2018-Feb-11 20:26N 06°01' E 001°19'0 0.0
2018-Feb-11 19:59N 06°01' E 001°19'0 0.0
2018-Feb-11 19:29N 06°01' E 001°19'0 0.0
2018-Feb-11 18:59N 06°01' E 001°19'0 0.0
2018-Feb-11 18:29N 06°01' E 001°19'0 0.0
2018-Feb-11 17:59N 06°01' E 001°19'0 0.0
2018-Feb-11 17:29N 06°01' E 001°19'0 0.0
2018-Feb-11 16:59N 06°01' E 001°19'0 0.0
2018-Feb-11 16:29N 06°01' E 001°19'0 0.0
2018-Feb-11 15:59N 06°01' E 001°19'0 0.0
2018-Feb-11 15:26N 06°01' E 001°19'0 0.0
2018-Feb-11 14:59N 06°01' E 001°19'0 0.0
2018-Feb-11 02:47N 06°01' E 001°19'0 0.0
2018-Feb-11 01:44N 06°01' E 001°19'0 0.0
2018-Feb-10 23:38N 06°01' E 001°19'0 0.1
2018-Feb-10 23:29N 06°01' E 001°19'0 0.0
2018-Feb-10 22:53N 06°01' E 001°19'0 0.0
2018-Feb-10 22:29N 06°01' E 001°19'0 0.0
2018-Feb-10 21:41N 06°01' E 001°19'0 0.0
2018-Feb-10 21:26N 06°01' E 001°19'0 0.0
2018-Feb-10 20:56N 06°01' E 001°19'0 0.0
2018-Feb-10 20:29N 06°01' E 001°19'0 0.0
2018-Feb-10 19:59N 06°01' E 001°19'0 0.0
2018-Feb-10 19:29N 06°01' E 001°19'0 0.0
2018-Feb-10 18:59N 06°01' E 001°19'0 0.0
2018-Feb-10 18:29N 06°01' E 001°19'0 0.0
2018-Feb-10 17:59N 06°01' E 001°19'0 0.0
2018-Feb-10 17:29N 06°01' E 001°19'0 0.0
2018-Feb-10 16:59N 06°01' E 001°19'0 0.0
2018-Feb-10 16:29N 06°01' E 001°19'0 0.0
2018-Feb-10 15:59N 06°01' E 001°19'0 0.0
2018-Feb-10 15:29N 06°01' E 001°19'  
Track history (hours):
 
Tides and Currents Weather Stations Pressure Air Temp Water Temp Dewpoint Dewpoint Depression Visibility Wind Speed Wind Dir Waves Ship Positions

Flagship Orchid

Last reported at 2018-Feb-18 22:10 UTC. Time now 2018-Feb-19 01:57 UTC.
Position N 06°01' E 001°15'.

Length 228 m; draft 11.7 m.

Type: Ship. MMSI: 538004640.

Date/timePositionNaut miles runAvg speedWind from/ knotsBaromVisibWave heightAir tempDewpointWater temp
2018-Feb-18 22:10N 06°01' E 001°15'0 0.0
2018-Feb-18 21:52N 06°01' E 001°15'0 0.0
2018-Feb-18 21:25N 06°01' E 001°15'0 0.0
2018-Feb-18 17:55N 06°01' E 001°15'0 0.0
2018-Feb-18 17:19N 06°01' E 001°15'8 1.5
2018-Feb-18 12:03N 05°53' E 001°17'1 0.7
2018-Feb-18 11:10N 05°54' E 001°18'0 2.8
2018-Feb-18 10:59N 05°54' E 001°18'2 4.2
2018-Feb-18 10:30N 05°56' E 001°17'6 0.5
2018-Feb-17 21:48N 06°01' E 001°15'0 0.0
2018-Feb-17 21:24N 06°01' E 001°15'0 0.0
2018-Feb-17 20:39N 06°01' E 001°15'0 0.0
2018-Feb-17 19:12N 06°01' E 001°15'0 0.0
2018-Feb-17 18:51N 06°01' E 001°15'0 0.0
2018-Feb-17 18:30N 06°01' E 001°15'0 0.0
2018-Feb-17 17:51N 06°01' E 001°15'0 0.0
2018-Feb-17 17:12N 06°01' E 001°15'0 0.0
2018-Feb-17 16:00N 06°01' E 001°15'0 0.0
2018-Feb-17 15:30N 06°01' E 001°15'0 0.0
2018-Feb-17 14:54N 06°01' E 001°15'0 0.0
2018-Feb-17 14:30N 06°01' E 001°15'0 0.0
2018-Feb-17 05:21N 06°01' E 001°15'0 0.0
2018-Feb-17 04:18N 06°01' E 001°15'0 0.0
2018-Feb-16 21:00N 06°01' E 001°15'0 0.0
2018-Feb-16 20:30N 06°01' E 001°15'0 0.0
2018-Feb-16 20:00N 06°01' E 001°15'0 0.0
2018-Feb-16 19:30N 06°01' E 001°15'0 0.0
2018-Feb-16 19:00N 06°01' E 001°15'0 0.0
2018-Feb-16 18:30N 06°01' E 001°15'0 0.0
2018-Feb-16 18:00N 06°01' E 001°15'0 0.0
2018-Feb-16 17:30N 06°01' E 001°15'0 0.0
2018-Feb-16 16:54N 06°01' E 001°15'0 0.0
2018-Feb-16 16:12N 06°01' E 001°15'0 0.0
2018-Feb-16 16:00N 06°01' E 001°15'0 0.0
2018-Feb-16 03:15N 06°01' E 001°15'0 0.0
2018-Feb-16 02:54N 06°01' E 001°15'0 0.0
2018-Feb-16 02:24N 06°01' E 001°15'0 0.0
2018-Feb-16 02:00N 06°01' E 001°15'0 0.0
2018-Feb-16 01:30N 06°01' E 001°15'0 0.0
2018-Feb-16 01:00N 06°01' E 001°15'0 0.0
2018-Feb-16 00:30N 06°01' E 001°15'0 0.0
2018-Feb-16 00:00N 06°01' E 001°15'0 0.0
2018-Feb-15 23:30N 06°01' E 001°15'0 0.0
2018-Feb-15 22:57N 06°01' E 001°15'0 0.0
2018-Feb-15 22:30N 06°01' E 001°15'0 0.0
2018-Feb-15 21:48N 06°01' E 001°15'0 0.0
2018-Feb-15 21:30N 06°01' E 001°15'0 0.0
2018-Feb-15 20:51N 06°01' E 001°15'0 0.0
2018-Feb-15 19:57N 06°01' E 001°15'0 0.0
2018-Feb-15 19:27N 06°01' E 001°15'0 0.0
2018-Feb-15 19:00N 06°01' E 001°15'0 0.0
2018-Feb-15 18:27N 06°01' E 001°15'0 0.0
2018-Feb-15 17:51N 06°01' E 001°15'0 0.2
2018-Feb-15 17:18N 06°01' E 001°15'0 0.6
2018-Feb-15 16:59N 06°01' E 001°15'0 0.6
2018-Feb-15 16:25N 06°01' E 001°15'4 0.4
2018-Feb-15 07:59N 06°01' E 001°19'0 0.0
2018-Feb-15 07:11N 06°01' E 001°19'0 0.0
2018-Feb-15 06:17N 06°01' E 001°19'0 0.0
2018-Feb-14 20:32N 06°01' E 001°19'0 0.0
2018-Feb-14 20:29N 06°01' E 001°19'0 0.0
2018-Feb-14 19:53N 06°01' E 001°19'0 0.0
2018-Feb-14 19:29N 06°01' E 001°19'0 0.0
2018-Feb-14 18:59N 06°01' E 001°19'0 0.0
2018-Feb-14 18:20N 06°01' E 001°19'0 0.0
2018-Feb-14 17:59N 06°01' E 001°19'0 0.0
2018-Feb-14 16:59N 06°01' E 001°19'0 0.0
2018-Feb-14 16:29N 06°01' E 001°19'0 0.0
2018-Feb-14 15:59N 06°01' E 001°19'0 0.0
2018-Feb-14 15:29N 06°01' E 001°19'0 0.0
2018-Feb-14 14:59N 06°01' E 001°19'0 0.0
2018-Feb-14 14:11N 06°01' E 001°19'0 0.0
2018-Feb-14 13:59N 06°01' E 001°19'0 0.0
2018-Feb-14 02:38N 06°01' E 001°19'0 0.0
2018-Feb-14 02:29N 06°01' E 001°19'0 0.0
2018-Feb-14 01:56N 06°01' E 001°19'0 0.0
2018-Feb-14 01:14N 06°01' E 001°19'0 0.0
2018-Feb-14 00:41N 06°01' E 001°19'0 0.0
2018-Feb-14 00:29N 06°01' E 001°19'0 0.0
2018-Feb-13 23:53N 06°01' E 001°19'0 0.0
2018-Feb-13 23:29N 06°01' E 001°19'0 0.0
2018-Feb-13 22:50N 06°01' E 001°19'0 0.0
2018-Feb-13 22:26N 06°01' E 001°19'0 0.0
2018-Feb-13 21:59N 06°01' E 001°19'0 0.0
2018-Feb-13 21:20N 06°01' E 001°19'0 0.0
2018-Feb-13 20:59N 06°01' E 001°19'0 0.0
2018-Feb-13 20:29N 06°01' E 001°19'0 0.0
2018-Feb-13 19:56N 06°01' E 001°19'0 0.0
2018-Feb-13 19:29N 06°01' E 001°19'0 0.0
2018-Feb-13 18:59N 06°01' E 001°19'0 0.0
2018-Feb-13 18:29N 06°01' E 001°19'0 0.0
2018-Feb-13 17:56N 06°01' E 001°19'0 0.0
2018-Feb-13 17:23N 06°01' E 001°19'0 0.0
2018-Feb-13 16:59N 06°01' E 001°19'0 0.0
2018-Feb-12 22:50N 06°01' E 001°19'0 0.0
2018-Feb-12 22:29N 06°01' E 001°19'0 0.0
2018-Feb-12 21:44N 06°01' E 001°19'0 0.0
2018-Feb-12 21:17N 06°01' E 001°19'0 0.0
2018-Feb-12 20:53N 06°01' E 001°19'0 0.0
2018-Feb-12 19:47N 06°01' E 001°19'0 0.0
2018-Feb-12 19:11N 06°01' E 001°19'0 0.0
2018-Feb-12 18:14N 06°01' E 001°19'0 0.0
2018-Feb-12 17:59N 06°01' E 001°19'0 0.0
2018-Feb-12 17:29N 06°01' E 001°19'0 0.0
2018-Feb-12 16:59N 06°01' E 001°19'0 0.0
2018-Feb-12 16:29N 06°01' E 001°19'0 0.0
2018-Feb-12 15:56N 06°01' E 001°19'0 0.0
2018-Feb-12 15:17N 06°01' E 001°19'0 0.0
2018-Feb-12 14:56N 06°01' E 001°19'0 0.0
2018-Feb-11 22:20N 06°01' E 001°19'0 0.0
2018-Feb-11 21:59N 06°01' E 001°19'0 0.0
2018-Feb-11 21:29N 06°01' E 001°19'0 0.0
2018-Feb-11 20:56N 06°01' E 001°19'0 0.0
2018-Feb-11 20:26N 06°01' E 001°19'0 0.0
2018-Feb-11 19:59N 06°01' E 001°19'0 0.0
2018-Feb-11 19:29N 06°01' E 001°19'0 0.0
2018-Feb-11 18:59N 06°01' E 001°19'0 0.0
2018-Feb-11 18:29N 06°01' E 001°19'0 0.0
2018-Feb-11 17:59N 06°01' E 001°19'0 0.0
2018-Feb-11 17:29N 06°01' E 001°19'0 0.0
2018-Feb-11 16:59N 06°01' E 001°19'0 0.0
2018-Feb-11 16:29N 06°01' E 001°19'0 0.0
2018-Feb-11 15:59N 06°01' E 001°19'0 0.0
2018-Feb-11 15:26N 06°01' E 001°19'0 0.0
2018-Feb-11 14:59N 06°01' E 001°19'0 0.0
2018-Feb-11 02:47N 06°01' E 001°19'0 0.0
2018-Feb-11 01:44N 06°01' E 001°19'0 0.0
2018-Feb-10 23:38N 06°01' E 001°19'0 0.1
2018-Feb-10 23:29N 06°01' E 001°19'0 0.0
2018-Feb-10 22:53N 06°01' E 001°19'0 0.0
2018-Feb-10 22:29N 06°01' E 001°19'0 0.0
2018-Feb-10 21:41N 06°01' E 001°19'0 0.0
2018-Feb-10 21:26N 06°01' E 001°19'0 0.0
2018-Feb-10 20:56N 06°01' E 001°19'0 0.0
2018-Feb-10 20:29N 06°01' E 001°19'0 0.0
2018-Feb-10 19:59N 06°01' E 001°19'0 0.0
2018-Feb-10 19:29N 06°01' E 001°19'0 0.0
2018-Feb-10 18:59N 06°01' E 001°19'0 0.0
2018-Feb-10 18:29N 06°01' E 001°19'0 0.0
2018-Feb-10 17:59N 06°01' E 001°19'0 0.0
2018-Feb-10 17:29N 06°01' E 001°19'0 0.0
2018-Feb-10 16:59N 06°01' E 001°19'0 0.0
2018-Feb-10 16:29N 06°01' E 001°19'0 0.0
2018-Feb-10 15:59N 06°01' E 001°19'0 0.0
2018-Feb-10 15:29N 06°01' E 001°19'  

Dump ship's entire track history